Time;durP1;ratioP1;P1;durP2;ratioP2;P2;SDS_P1;SDS_P2;PMS_P1;PMS_P2;Temp;Humidity;BMP_temperature;BMP_pressure;BME280_temperature;BME280_humidity;BME280_pressure;Samples;Min_cycle;Max_cycle;Signal;HPM_P1;HPM_P2
2021/12/05 00:23:08;;;;;;;7.07;1.92;;;;;;;3.57;100.00;98447.53;8292518;28;20046;-80
2021/12/05 00:27:16;;;;;;;5.88;2.08;;;;;;;3.58;99.81;98441.88;8248584;28;20426;-80
2021/12/05 01:10:08;;;;;;;9.07;2.08;;;;;;;3.48;98.56;98447.09;8295144;28;20529;-80
2021/12/05 01:14:24;;;;;;;7.35;2.00;;;;;;;3.46;98.28;98446.50;8273209;28;20037;-80
2021/12/05 01:18:25;;;;;;;8.05;1.92;;;;;;;3.44;98.73;98456.78;8276343;28;20057;-80
2021/12/05 01:22:31;;;;;;;6.50;1.83;;;;;;;3.42;98.88;98457.03;8297559;28;20106;-80
2021/12/05 01:26:51;;;;;;;12.10;2.15;;;;;;;3.41;99.09;98455.38;8283387;28;20042;-79
2021/12/05 01:52:11;;;;;;;7.65;2.13;;;;;;;3.45;100.00;98472.09;8282047;28;20113;-80
2021/12/05 01:56:31;;;;;;;10.57;2.30;;;;;;;3.46;100.00;98462.84;8260479;28;20047;-80
2021/12/05 02:09:50;;;;;;;10.25;1.83;;;;;;;3.45;100.00;98455.75;8300462;28;20041;-80
2021/12/05 02:48:15;;;;;;;6.18;1.50;;;;;;;3.03;100.00;98438.66;8291344;28;20049;-79
2021/12/05 02:52:28;;;;;;;6.65;1.60;;;;;;;2.85;100.00;98434.13;8314709;28;20442;-80
2021/12/05 02:56:32;;;;;;;9.40;2.10;;;;;;;2.72;100.00;98430.56;8290325;28;20042;-80
2021/12/05 03:00:45;;;;;;;7.10;2.15;;;;;;;2.62;100.00;98429.47;8277220;28;20041;-80
2021/12/05 03:04:49;;;;;;;14.23;2.00;;;;;;;2.54;100.00;98427.91;8281057;28;20120;-79
2021/12/05 03:08:56;;;;;;;4.82;1.77;;;;;;;2.44;100.00;98428.47;8295589;28;20038;-80
2021/12/05 03:12:57;;;;;;;6.65;2.05;;;;;;;2.31;100.00;98427.81;8295519;28;20848;-80
2021/12/05 03:16:57;;;;;;;9.30;1.42;;;;;;;2.19;100.00;98417.72;8290620;28;20050;-80
2021/12/05 03:21:00;;;;;;;10.85;2.65;;;;;;;2.15;100.00;98421.16;8284552;28;20039;-80
2021/12/05 03:25:04;;;;;;;12.68;1.70;;;;;;;2.07;100.00;98422.28;8275362;28;20149;-80
2021/12/05 03:29:10;;;;;;;5.30;1.92;;;;;;;2.01;100.00;98407.72;8265726;28;20046;-80
2021/12/05 03:33:11;;;;;;;8.18;1.92;;;;;;;1.97;100.00;98411.13;8279518;28;20495;-81
2021/12/05 03:37:12;;;;;;;7.13;1.77;;;;;;;1.95;100.00;98408.63;8270290;28;20038;-79
2021/12/05 03:41:16;;;;;;;9.73;2.60;;;;;;;1.95;100.00;98413.25;8282144;28;20042;-80
2021/12/05 03:45:22;;;;;;;12.45;2.40;;;;;;;1.89;100.00;98420.41;8304416;28;20095;-80
2021/12/05 03:49:24;;;;;;;8.35;2.50;;;;;;;1.83;100.00;98419.44;8296013;28;20106;-80
2021/12/05 03:53:24;;;;;;;8.98;2.60;;;;;;;1.79;100.00;98423.66;8283368;28;20029;-80
2021/12/05 03:57:27;;;;;;;4.25;1.92;;;;;;;1.84;100.00;98422.97;8282492;28;20037;-80
2021/12/05 04:01:28;;;;;;;6.80;1.92;;;;;;;1.88;100.00;98426.09;8277151;28;20042;-80
2021/12/05 04:05:31;;;;;;;7.95;2.28;;;;;;;1.89;100.00;98425.03;8270414;28;20050;-79
2021/12/05 04:09:33;;;;;;;7.05;2.10;;;;;;;2.02;100.00;98435.72;8284599;28;20116;-80
2021/12/05 04:13:34;;;;;;;8.30;1.95;;;;;;;2.16;100.00;98430.94;8281884;28;20030;-78
2021/12/05 04:17:37;;;;;;;8.05;1.90;;;;;;;2.29;100.00;98419.91;8280482;28;20042;-79
2021/12/05 04:21:39;;;;;;;5.97;1.95;;;;;;;2.39;100.00;98417.44;8271756;28;20042;-79
2021/12/05 04:25:43;;;;;;;7.07;1.90;;;;;;;2.48;100.00;98404.38;8265419;28;20053;-79
2021/12/05 04:29:43;;;;;;;10.02;2.05;;;;;;;2.53;100.00;98409.09;8267411;28;20039;-80
2021/12/05 04:33:45;;;;;;;6.50;1.33;;;;;;;2.60;100.00;98401.69;8284014;28;20060;-82
2021/12/05 04:37:45;;;;;;;6.68;1.85;;;;;;;2.61;100.00;98406.03;8272983;28;20092;-80
2021/12/05 04:41:46;;;;;;;8.40;1.42;;;;;;;2.65;100.00;98399.91;8275398;28;20038;-81
2021/12/05 04:45:47;;;;;;;4.60;1.48;;;;;;;2.71;100.00;98396.25;8292920;28;20132;-80
2021/12/05 04:49:49;;;;;;;8.75;1.48;;;;;;;2.75;100.00;98396.63;8290752;28;20037;-81
2021/12/05 04:53:50;;;;;;;5.88;1.67;;;;;;;2.62;100.00;98392.22;8274702;28;20057;-81
2021/12/05 04:57:53;;;;;;;;;;;;;;;2.55;100.00;98394.19;8286358;28;20040;-80
2021/12/05 05:01:57;;;;;;;7.82;2.15;;;;;;;2.58;100.00;98392.91;8264090;28;19917;-81
2021/12/05 05:06:01;;;;;;;6.57;1.63;;;;;;;2.67;100.00;98405.94;8279168;28;20133;-80
2021/12/05 05:10:09;;;;;;;4.93;2.15;;;;;;;2.84;100.00;98405.28;8281599;28;20054;-79
2021/12/05 05:14:10;;;;;;;6.38;1.92;;;;;;;2.97;100.00;98413.19;8284012;28;20443;-80
2021/12/05 05:18:12;;;;;;;10.52;1.85;;;;;;;2.99;100.00;98404.81;8277513;28;20053;-81
2021/12/05 05:43:28;;;;;;;9.32;2.67;;;;;;;3.30;100.00;98412.66;8298566;28;20066;-81
2021/12/05 05:48:14;;;;;;;6.20;2.10;;;;;;;3.31;100.00;98416.19;8283105;28;20183;-80
2021/12/05 05:51:55;;;;;;;5.25;1.90;;;;;;;3.33;100.00;98420.34;8288173;28;20097;-80
2021/12/05 05:55:57;;;;;;;4.63;1.73;;;;;;;3.32;100.00;98415.94;8284050;28;20483;-80
2021/12/05 06:00:07;;;;;;;6.65;2.05;;;;;;;3.35;100.00;98423.63;8297695;28;20050;-80
2021/12/05 06:04:13;;;;;;;8.77;2.10;;;;;;;3.35;100.00;98422.81;8277837;28;20601;-81
2021/12/05 06:08:13;;;;;;;4.18;1.52;;;;;;;3.37;100.00;98426.13;8287105;28;20045;-81
2021/12/05 06:12:14;;;;;;;4.32;1.83;;;;;;;3.34;100.00;98423.88;8297883;28;20034;-81
2021/12/05 06:16:15;;;;;;;6.68;1.80;;;;;;;3.42;100.00;98428.97;8274952;28;20058;-81
2021/12/05 06:20:18;;;;;;;6.18;2.00;;;;;;;3.37;100.00;98428.84;8282818;28;20414;-80
2021/12/05 06:24:22;;;;;;;2.78;1.38;;;;;;;3.42;100.00;98439.84;8300851;28;20046;-81
2021/12/05 06:28:33;;;;;;;5.68;1.30;;;;;;;3.47;100.00;98447.31;8301236;28;20034;-80
2021/12/05 06:49:36;;;;;;;6.25;1.40;;;;;;;3.61;100.00;98459.63;8270117;28;20046;-80
2021/12/05 06:53:37;;;;;;;5.22;1.42;;;;;;;3.66;100.00;98465.22;8279951;28;20042;-80
2021/12/05 06:57:38;;;;;;;4.65;0.93;;;;;;;3.70;99.95;98473.72;8277545;28;20105;-80
2021/12/05 07:01:38;;;;;;;6.28;1.38;;;;;;;3.75;99.35;98480.13;8303678;28;20518;-80
2021/12/05 07:09:40;;;;;;;4.32;1.35;;;;;;;3.90;99.41;98479.63;8281831;28;20053;-80
2021/12/05 07:22:17;;;;;;;3.45;1.05;;;;;;;3.92;97.95;98504.72;8297082;28;20057;-81
2021/12/05 07:26:28;;;;;;;4.03;1.13;;;;;;;3.94;98.11;98504.50;8286826;28;20071;-80
2021/12/05 07:43:25;;;;;;;4.65;1.38;;;;;;;3.88;98.10;98517.19;8301442;28;20057;-80
2021/12/05 07:47:30;;;;;;;4.20;1.17;;;;;;;3.91;98.07;98513.97;8276773;28;20042;-81
2021/12/05 07:51:31;;;;;;;3.28;1.65;;;;;;;3.94;97.71;98507.22;8279830;28;20058;-79
2021/12/05 07:55:39;;;;;;;6.82;2.10;;;;;;;3.95;98.39;98517.06;8280185;28;20046;-81
2021/12/05 08:16:40;;;;;;;7.65;2.20;;;;;;;4.16;97.46;98501.97;8290132;28;20102;-80
2021/12/05 08:20:44;;;;;;;5.50;1.30;;;;;;;4.21;96.30;98502.91;8290829;28;20042;-80
2021/12/05 08:24:47;;;;;;;4.57;1.40;;;;;;;4.22;95.17;98515.47;8263345;28;20088;-80
2021/12/05 08:33:13;;;;;;;4.60;1.50;;;;;;;4.34;95.15;98523.63;8272676;28;20066;-81
2021/12/05 08:37:51;;;;;;;4.03;1.75;;;;;;;4.38;94.87;98524.00;8266496;28;20450;-81
2021/12/05 09:24:46;;;;;;;8.13;3.05;;;;;;;4.88;91.94;98553.34;8279099;28;20042;-81
2021/12/05 10:03:32;;;;;;;7.38;1.77;;;;;;;5.27;90.09;98565.28;8293567;28;20057;-81
2021/12/05 10:11:56;;;;;;;6.05;2.30;;;;;;;5.49;90.06;98559.91;8300701;28;20041;-80
2021/12/05 10:37:24;;;;;;;4.63;1.23;;;;;;;6.13;81.91;98546.75;8288821;28;20053;-81
2021/12/05 10:45:36;;;;;;;7.00;1.67;;;;;;;6.49;82.51;98549.13;8270799;28;20597;-83
2021/12/05 10:49:36;;;;;;;8.75;1.95;;;;;;;6.77;82.05;98543.44;8283802;28;20125;-82
2021/12/05 10:53:48;;;;;;;3.22;1.38;;;;;;;6.94;81.56;98540.63;8286200;28;20500;-80
2021/12/05 10:57:49;;;;;;;5.00;1.40;;;;;;;7.05;80.67;98542.41;8257857;28;20043;-81
2021/12/05 11:01:55;;;;;;;5.47;1.95;;;;;;;6.98;79.73;98546.41;8287230;28;20046;-82
2021/12/05 11:05:56;;;;;;;6.28;1.58;;;;;;;6.76;80.51;98541.78;8276378;28;20057;-82
2021/12/05 11:09:59;;;;;;;3.72;1.38;;;;;;;6.97;82.08;98544.78;8289543;28;20081;-81
2021/12/05 11:14:01;;;;;;;6.95;1.42;;;;;;;7.40;80.46;98545.72;8293476;28;20041;-81
2021/12/05 11:18:02;;;;;;;2.45;1.00;;;;;;;7.51;78.84;98544.75;8286359;28;20041;-79
2021/12/05 11:22:11;;;;;;;5.00;1.25;;;;;;;7.30;77.07;98544.56;8283951;28;20042;-78
2021/12/05 11:26:19;;;;;;;4.97;1.42;;;;;;;6.96;79.77;98548.56;8290302;28;20061;-78
2021/12/05 11:30:22;;;;;;;5.63;1.65;;;;;;;6.58;80.74;98544.88;8283654;28;20109;-80
2021/12/05 11:34:29;;;;;;;2.72;1.23;;;;;;;6.51;82.13;98536.00;8281697;28;20042;-83
2021/12/05 11:38:35;;;;;;;3.95;1.13;;;;;;;6.48;82.13;98533.78;8281169;28;20468;-84
2021/12/05 11:42:51;;;;;;;5.32;2.17;;;;;;;6.35;82.58;98541.28;8290921;28;21262;-83
2021/12/05 11:46:55;;;;;;;3.75;1.90;;;;;;;6.18;83.31;98545.16;8280875;28;20503;-84
2021/12/05 11:50:58;;;;;;;4.88;2.30;;;;;;;5.98;84.14;98532.00;8286591;28;20558;-81
2021/12/05 11:54:58;;;;;;;4.28;2.38;;;;;;;5.82;85.11;98537.22;8260552;28;20067;-80
2021/12/05 11:59:10;;;;;;;5.82;2.92;;;;;;;6.08;85.28;98532.97;8394145;23;20069;-81
2021/12/05 12:03:11;;;;;;;6.13;2.50;;;;;;;6.02;85.27;98536.72;8283249;28;20419;-81
2021/12/05 12:07:27;;;;;;;8.82;3.15;;;;;;;5.87;85.30;98537.31;8313500;28;20042;-81
2021/12/05 12:11:30;;;;;;;5.40;2.72;;;;;;;5.63;86.05;98530.38;8357294;28;20041;-82
2021/12/05 12:15:34;;;;;;;6.35;2.20;;;;;;;5.48;87.14;98531.78;8342420;28;20098;-81
2021/12/05 12:19:36;;;;;;;6.57;2.10;;;;;;;5.40;87.45;98528.63;8324563;28;20524;-82
2021/12/05 12:23:37;;;;;;;5.60;2.20;;;;;;;5.23;88.83;98536.78;8354195;28;20541;-82
2021/12/05 12:27:51;;;;;;;7.63;3.38;;;;;;;5.15;90.30;98535.31;8321261;28;20073;-81
2021/12/05 12:31:53;;;;;;;6.18;2.40;;;;;;;5.44;89.41;98541.53;8341796;28;20142;-81
2021/12/05 12:35:54;;;;;;;5.10;2.43;;;;;;;5.83;88.57;98546.25;8311991;28;20065;-82
2021/12/05 12:39:54;;;;;;;5.90;2.58;;;;;;;6.09;87.07;98547.47;8329008;28;20283;-82
2021/12/05 12:44:02;;;;;;;5.70;1.67;;;;;;;6.39;85.71;98533.38;8355647;28;20047;-81
2021/12/05 12:48:03;;;;;;;2.92;1.55;;;;;;;6.84;83.62;98526.81;8360451;28;20502;-82
2021/12/05 12:52:09;;;;;;;2.38;1.25;;;;;;;6.80;81.24;98534.72;8332052;28;20067;-82
2021/12/05 12:56:19;;;;;;;4.38;2.03;;;;;;;6.50;81.51;98539.84;8324905;28;20128;-82
2021/12/05 13:00:26;;;;;;;3.67;1.20;;;;;;;6.37;83.53;98530.94;8313441;28;1071604;-83
2021/12/05 14:47:22;;;;;;;2.47;0.90;;;;;;;5.07;88.04;98638.63;8187833;28;20161;-82
2021/12/05 14:52:24;;;;;;;;;;;;;;;;;;;;;
2021/12/05 14:56:51;;;;;;;4.03;1.50;;;;;;;5.06;88.72;98640.53;8117599;29;20042;-81
2021/12/05 15:06:34;;;;;;;4.93;1.70;;;;;;;5.12;89.09;98660.59;8190761;28;20043;-82
2021/12/05 15:11:12;;;;;;;3.25;1.45;;;;;;;5.09;88.82;98666.53;8166246;28;20031;-81
2021/12/05 15:15:54;;;;;;;3.03;1.00;;;;;;;5.08;88.66;98673.88;8192178;28;20075;-82
2021/12/05 15:20:23;;;;;;;4.00;1.27;;;;;;;5.03;89.18;98671.88;8195983;28;20035;-81
2021/12/05 15:24:27;;;;;;;3.83;1.23;;;;;;;5.04;89.20;98675.44;8194070;28;20169;-81
2021/12/05 15:28:27;;;;;;;16.13;7.60;;;;;;;5.02;89.75;98680.28;8179132;28;20114;-81
2021/12/05 15:32:31;;;;;;;22.13;10.68;;;;;;;5.00;89.99;98694.19;8181973;28;20551;-81
2021/12/05 15:36:35;;;;;;;;;;;;;;;4.98;90.79;98692.78;8177735;28;20043;-81
2021/12/05 15:40:44;;;;;;;9.07;4.60;;;;;;;4.96;90.38;98706.66;8175943;28;20319;-81
2021/12/05 15:44:46;;;;;;;6.65;2.90;;;;;;;4.96;90.68;98700.38;8201463;28;20512;-81
2021/12/05 15:48:48;;;;;;;5.35;2.42;;;;;;;4.92;91.80;98705.50;8178497;28;20035;-80
2021/12/05 15:52:57;;;;;;;4.53;1.77;;;;;;;4.94;91.97;98708.81;8185114;29;20039;-81
2021/12/05 15:57:21;;;;;;;4.68;2.13;;;;;;;4.95;91.31;98715.94;8162598;29;20070;-79
2021/12/05 16:01:29;;;;;;;3.53;2.10;;;;;;;4.91;91.65;98713.94;8155054;28;20527;-80
2021/12/05 16:05:33;;;;;;;4.72;2.30;;;;;;;4.80;91.77;98716.41;8194447;28;20488;-79
2021/12/05 16:10:00;;;;;;;5.07;2.20;;;;;;;4.68;91.91;98722.97;8230510;23;20046;-79
2021/12/05 16:14:03;;;;;;;4.57;2.20;;;;;;;4.54;92.36;98725.91;8204288;28;20043;-80
2021/12/05 16:18:03;;;;;;;;;;;;;;;4.43;93.96;98726.78;8213883;28;20058;-79
2021/12/05 16:22:04;;;;;;;3.92;2.13;;;;;;;4.36;93.27;98720.59;8208083;28;19977;-82
2021/12/05 16:26:09;;;;;;;7.55;3.38;;;;;;;4.35;93.30;98727.13;8221574;28;20130;-80
2021/12/05 16:30:23;;;;;;;5.88;3.20;;;;;;;4.30;93.46;98726.97;8209761;28;20086;-82
2021/12/05 16:34:30;;;;;;;4.95;3.30;;;;;;;4.22;93.74;98733.59;8200154;28;20045;-81
2021/12/05 16:38:35;;;;;;;4.90;2.83;;;;;;;4.09;93.71;98740.09;8238728;28;20183;-81
2021/12/05 16:42:39;;;;;;;6.68;3.17;;;;;;;3.98;93.84;98742.81;8233276;28;20070;-81
2021/12/05 16:46:43;;;;;;;7.35;3.05;;;;;;;3.86;94.09;98749.06;8202310;28;20039;-80
2021/12/05 16:50:44;;;;;;;8.60;3.78;;;;;;;3.78;94.84;98756.75;8202503;28;20042;-80
2021/12/05 16:54:51;;;;;;;6.80;4.00;;;;;;;3.79;95.24;98761.13;8202619;28;20058;-80
2021/12/05 16:59:04;;;;;;;5.45;3.67;;;;;;;3.86;94.78;98753.69;8208048;28;20069;-80
2021/12/05 17:03:08;;;;;;;8.40;3.50;;;;;;;3.92;94.74;98755.47;8227569;28;20081;-82
2021/12/05 17:07:13;;;;;;;5.50;3.45;;;;;;;3.97;94.56;98758.34;8213689;28;20078;-82
2021/12/05 17:11:18;;;;;;;8.65;4.03;;;;;;;3.98;94.42;98760.00;8208430;28;20043;-79
2021/12/05 17:15:22;;;;;;;8.15;3.60;;;;;;;3.95;93.90;98771.34;8181254;28;20579;-80
2021/12/05 17:19:27;;;;;;;6.40;3.60;;;;;;;3.84;93.22;98780.34;8222939;28;20066;-80
2021/12/05 17:23:53;;;;;;;7.25;4.13;;;;;;;3.68;94.76;98778.25;8223802;28;20176;-82
2021/12/05 17:27:54;;;;;;;8.07;4.25;;;;;;;3.60;94.83;98788.41;8223624;28;20047;-81
2021/12/05 17:32:05;;;;;;;9.02;4.07;;;;;;;3.50;95.52;98790.84;8206299;28;20078;-82
2021/12/05 17:36:39;;;;;;;6.78;3.92;;;;;;;3.35;96.65;98788.50;8213922;28;20078;-81
2021/12/05 17:40:40;;;;;;;8.40;4.30;;;;;;;3.18;96.64;98785.59;8223052;28;20404;-80
2021/12/05 17:44:42;;;;;;;8.80;4.25;;;;;;;3.03;97.26;98790.53;8223768;28;20047;-81
2021/12/05 17:48:42;;;;;;;5.73;3.77;;;;;;;2.88;97.11;98795.53;8202976;28;20491;-81
2021/12/05 17:52:45;;;;;;;6.28;3.55;;;;;;;2.75;97.46;98801.94;8224334;28;20039;-82
2021/12/05 17:56:51;;;;;;;8.00;3.72;;;;;;;2.68;98.30;98803.91;8207193;28;20105;-78
2021/12/05 18:02:36;;;;;;;8.98;3.92;;;;;;;2.69;97.83;98816.44;8230675;28;20054;-81
2021/12/05 18:05:46;;;;;;;7.10;4.00;;;;;;;2.77;97.92;98812.59;8221374;28;20058;-81
2021/12/05 18:09:46;;;;;;;8.38;4.60;;;;;;;2.86;97.97;98814.81;8227866;28;20129;-81
2021/12/05 18:13:52;;;;;;;7.35;4.28;;;;;;;2.96;98.05;98808.84;8225211;28;20046;-77
2021/12/05 18:17:55;;;;;;;6.85;4.40;;;;;;;3.05;98.33;98810.22;8217335;28;20451;-81
2021/12/05 18:21:55;;;;;;;;;;;;;;;3.15;98.23;98826.88;8218735;28;20054;-81
2021/12/05 18:25:57;;;;;;;6.37;3.37;;;;;;;3.26;97.98;98827.16;8208965;28;20338;-81
2021/12/05 18:29:57;;;;;;;5.35;3.25;;;;;;;3.34;97.73;98841.31;8213943;28;20292;-81
2021/12/05 18:34:03;;;;;;;5.07;3.00;;;;;;;3.39;97.39;98837.91;8219394;28;20047;-81
2021/12/05 18:38:09;;;;;;;5.10;2.97;;;;;;;3.44;97.49;98846.22;8213486;28;20297;-83
2021/12/05 18:42:12;;;;;;;4.82;2.75;;;;;;;3.49;97.05;98851.84;8229170;28;20053;-81
2021/12/05 18:46:13;;;;;;;4.65;2.50;;;;;;;3.55;97.15;98859.09;8220438;28;20049;-81
2021/12/05 18:50:14;;;;;;;3.60;2.10;;;;;;;3.59;96.84;98851.28;8219389;28;20077;-81
2021/12/05 18:54:14;;;;;;;3.90;1.55;;;;;;;3.61;97.04;98851.91;8208820;28;20074;-82
2021/12/05 18:58:17;;;;;;;4.45;1.88;;;;;;;3.63;96.63;98860.69;8211361;28;20157;-83
2021/12/05 19:06:43;;;;;;;2.95;1.58;;;;;;;3.67;96.86;98870.06;8227845;28;20043;-81
2021/12/05 19:15:08;;;;;;;2.97;1.73;;;;;;;3.72;96.22;98891.16;8227877;28;20051;-81
2021/12/05 19:19:10;;;;;;;4.85;2.30;;;;;;;3.75;96.11;98896.16;8220698;28;20142;-81
2021/12/05 19:23:11;;;;;;;6.45;1.85;;;;;;;3.76;96.05;98897.84;8226612;28;20053;-81
2021/12/05 19:27:15;;;;;;;3.83;1.50;;;;;;;3.73;95.99;98912.75;8215339;28;20042;-82
2021/12/05 19:31:15;;;;;;;3.67;1.35;;;;;;;3.73;97.17;98903.75;8199889;28;20559;-79
2021/12/05 19:35:18;;;;;;;2.97;1.50;;;;;;;3.75;97.00;98907.03;8225393;28;20039;-81
2021/12/05 19:39:22;;;;;;;2.37;1.50;;;;;;;3.70;97.07;98906.91;8228025;28;20388;-80
2021/12/05 19:43:25;;;;;;;2.15;1.25;;;;;;;3.68;97.54;98911.75;8210838;28;20093;-81
2021/12/05 19:47:26;;;;;;;2.80;1.20;;;;;;;3.64;98.15;98912.22;8213252;28;20562;-80
2021/12/05 19:51:27;;;;;;;2.13;1.33;;;;;;;3.60;97.58;98911.00;8213525;28;20505;-82
2021/12/05 19:55:28;;;;;;;4.15;1.33;;;;;;;3.50;97.82;98915.31;8218071;28;20039;-81
2021/12/05 19:59:29;;;;;;;1.58;1.38;;;;;;;3.36;97.91;98920.03;8201592;28;20078;-83
2021/12/05 20:03:32;;;;;;;3.38;1.15;;;;;;;3.23;97.80;98931.06;8216090;28;20436;-82
2021/12/05 20:07:32;;;;;;;2.50;1.20;;;;;;;3.07;98.07;98930.59;8214719;28;20032;-82
2021/12/05 20:11:34;;;;;;;2.17;1.10;;;;;;;2.90;98.75;98929.47;8209015;28;20042;-83
2021/12/05 20:15:36;;;;;;;3.20;1.80;;;;;;;2.65;98.78;98941.19;8222397;28;20055;-82
2021/12/05 20:19:37;;;;;;;3.47;1.90;;;;;;;2.49;99.83;98950.69;8218041;28;20074;-81
2021/12/05 20:23:41;;;;;;;4.72;1.50;;;;;;;2.37;99.95;98946.16;8215475;28;20073;-81
2021/12/05 20:27:42;;;;;;;2.58;1.55;;;;;;;2.30;100.00;98954.34;8216839;28;20047;-83
2021/12/05 20:31:43;;;;;;;3.35;2.00;;;;;;;2.26;100.00;98953.09;8221456;28;20101;-82
2021/12/05 20:35:44;;;;;;;5.28;3.08;;;;;;;2.23;100.00;98959.84;8219108;28;20061;-83
2021/12/05 20:39:44;;;;;;;8.00;4.50;;;;;;;2.21;100.00;98958.38;8207304;28;20049;-83
2021/12/05 20:43:46;;;;;;;4.85;2.58;;;;;;;2.26;100.00;98964.84;8235641;28;20411;-83
2021/12/05 20:47:47;;;;;;;5.47;2.75;;;;;;;2.37;100.00;98968.75;8205613;28;20098;-82
2021/12/05 20:51:48;;;;;;;7.53;3.60;;;;;;;2.50;100.00;98976.00;8196093;28;20492;-82
2021/12/05 20:55:48;;;;;;;10.25;4.47;;;;;;;2.61;100.00;98980.72;8204326;28;20039;-81
2021/12/05 20:59:49;;;;;;;10.23;5.35;;;;;;;2.73;100.00;98995.28;8195309;28;20088;-79
2021/12/05 21:03:50;;;;;;;11.75;5.60;;;;;;;2.85;100.00;99005.50;8198737;28;20133;-81
2021/12/05 21:07:54;;;;;;;10.40;7.32;;;;;;;2.95;100.00;99005.84;8203281;28;20051;-79
2021/12/05 21:11:54;;;;;;;10.30;6.18;;;;;;;3.04;100.00;99007.25;8225530;28;20039;-82
2021/12/05 21:15:56;;;;;;;9.93;5.63;;;;;;;3.10;99.85;99011.81;8214962;28;20069;-82
2021/12/05 21:19:56;;;;;;;10.70;4.97;;;;;;;3.11;100.00;99016.19;8223903;28;20129;-80
2021/12/05 21:23:57;;;;;;;8.45;4.93;;;;;;;3.19;99.92;99020.53;8203736;28;20050;-81
2021/12/05 21:27:57;;;;;;;9.10;5.35;;;;;;;3.25;99.66;99037.88;8232929;28;20054;-81
2021/12/05 21:31:57;;;;;;;8.57;5.00;;;;;;;3.31;99.14;99031.53;8231426;28;20050;-80
2021/12/05 21:36:00;;;;;;;10.40;4.47;;;;;;;3.24;99.01;99023.41;8230977;28;20049;-80
2021/12/05 21:40:01;;;;;;;7.32;3.92;;;;;;;3.23;99.38;99027.19;8219064;28;20294;-81
2021/12/05 21:44:01;;;;;;;8.27;4.80;;;;;;;3.23;99.61;99034.53;8222762;28;20117;-81
2021/12/05 21:48:01;;;;;;;8.07;4.53;;;;;;;3.27;99.48;99041.19;8226631;28;20119;-81
2021/12/05 21:52:03;;;;;;;7.68;4.72;;;;;;;3.30;99.51;99040.75;8215410;28;20306;-82
2021/12/05 21:56:09;;;;;;;9.23;4.10;;;;;;;3.33;99.38;99046.63;8219116;28;20198;-83
2021/12/05 22:00:18;;;;;;;9.05;5.75;;;;;;;3.29;100.00;99050.81;8209082;28;20054;-82
2021/12/05 22:04:18;;;;;;;12.18;6.32;;;;;;;3.31;100.00;99054.16;8215816;28;20484;-84
2021/12/05 22:08:21;;;;;;;7.75;4.05;;;;;;;3.34;99.99;99055.63;8212895;28;20038;-83
2021/12/05 22:12:21;;;;;;;6.53;3.97;;;;;;;3.36;99.47;99059.78;8229039;28;20053;-81
2021/12/05 22:16:24;;;;;;;6.95;4.60;;;;;;;3.35;99.56;99066.28;8188676;28;20046;-82
2021/12/05 22:20:26;;;;;;;;;;;;;;;3.30;99.34;99067.97;8222563;28;20051;-84
2021/12/05 22:24:26;;;;;;;6.57;4.10;;;;;;;3.28;100.00;99070.13;8210506;28;19922;-84
2021/12/05 22:28:27;;;;;;;9.90;5.13;;;;;;;3.28;100.00;99070.94;8233608;28;20101;-83
2021/12/05 22:32:27;;;;;;;8.70;5.60;;;;;;;3.34;100.00;99069.22;8216641;28;20067;-83
2021/12/05 22:36:29;;;;;;;7.28;4.68;;;;;;;3.36;100.00;99076.13;8213870;28;20093;-83
2021/12/05 22:40:30;;;;;;;6.95;4.45;;;;;;;3.40;100.00;99079.22;8226137;28;20051;-81
2021/12/05 22:44:31;;;;;;;10.10;5.35;;;;;;;3.42;99.92;99085.28;8221136;28;20488;-83
2021/12/05 22:48:31;;;;;;;11.15;5.18;;;;;;;3.40;100.00;99081.97;8211026;28;20046;-82
2021/12/05 22:52:32;;;;;;;7.75;5.15;;;;;;;3.40;100.00;99092.84;8213204;28;20710;-83
2021/12/05 22:56:32;;;;;;;9.68;4.97;;;;;;;3.39;99.94;99088.44;8221540;28;20480;-83
2021/12/05 23:00:41;;;;;;;7.25;4.70;;;;;;;3.37;99.88;99091.41;8222356;28;20100;-83
2021/12/05 23:04:42;;;;;;;8.23;4.55;;;;;;;3.36;100.00;99083.44;8223420;28;20551;-82
2021/12/05 23:08:42;;;;;;;6.85;3.88;;;;;;;3.34;100.00;99099.19;8203220;28;20058;-81
2021/12/05 23:12:43;;;;;;;9.68;4.10;;;;;;;3.30;100.00;99096.06;8225098;28;20069;-82
2021/12/05 23:16:43;;;;;;;6.70;4.20;;;;;;;3.33;100.00;99105.66;8214760;28;20553;-82
2021/12/05 23:20:44;;;;;;;6.40;4.10;;;;;;;3.33;100.00;99106.53;8222354;28;20472;-82
2021/12/05 23:24:44;;;;;;;6.53;4.15;;;;;;;3.28;100.00;99109.06;8214387;28;21515;-81
2021/12/05 23:28:45;;;;;;;6.35;3.85;;;;;;;3.28;99.98;99119.13;8215060;28;20042;-82
2021/12/05 23:32:47;;;;;;;9.10;4.82;;;;;;;3.18;99.58;99120.44;8224655;28;20112;-81
2021/12/05 23:36:48;;;;;;;7.40;4.07;;;;;;;3.09;99.73;99127.16;8220118;28;20066;-83
2021/12/05 23:40:50;;;;;;;9.07;4.53;;;;;;;3.05;100.00;99134.13;8222938;28;20094;-82
2021/12/05 23:44:52;;;;;;;6.85;4.38;;;;;;;3.08;100.00;99139.13;8221754;28;20042;-82
2021/12/05 23:48:52;;;;;;;8.70;4.22;;;;;;;3.05;100.00;99142.28;8211520;28;20524;-82
2021/12/05 23:52:53;;;;;;;7.63;5.15;;;;;;;3.06;100.00;99143.94;8229086;28;20042;-82
2021/12/05 23:56:53;;;;;;;6.55;4.55;;;;;;;3.00;100.00;99146.69;8212959;28;20125;-83
